Time;durP1;ratioP1;P1;durP2;ratioP2;P2;SDS_P1;SDS_P2;PMS_P1;PMS_P2;Temp;Humidity;BMP_temperature;BMP_pressure;BME280_temperature;BME280_humidity;BME280_pressure;Samples;Min_cycle;Max_cycle;Signal;HPM_P1;HPM_P2
2022/06/01 00:01:45;;;;;;;3.17;1.60;;;;;;;12.84;86.83;101065.06;7388987;19;20018;-70
2022/06/01 00:04:12;;;;;;;4.78;1.60;;;;;;;12.85;86.23;101056.13;7390647;19;20739;-67
2022/06/01 00:06:39;;;;;;;3.33;1.35;;;;;;;12.84;86.20;101062.44;7389582;19;20448;-68
2022/06/01 00:09:06;;;;;;;4.15;1.33;;;;;;;12.81;85.62;101060.91;7388881;19;20014;-69
2022/06/01 00:11:33;;;;;;;4.53;1.50;;;;;;;12.84;85.52;101063.25;7386769;19;20015;-69
2022/06/01 00:14:00;;;;;;;5.55;2.00;;;;;;;12.85;86.05;101069.34;7389877;19;20011;-69
2022/06/01 00:16:27;;;;;;;3.75;1.48;;;;;;;12.85;85.93;101061.41;7385549;19;20014;-67
2022/06/01 00:18:54;;;;;;;3.55;1.35;;;;;;;12.83;85.93;101071.31;7387921;19;20021;-69
2022/06/01 00:21:21;;;;;;;3.08;1.40;;;;;;;12.82;86.04;101067.03;7384683;19;20029;-68
2022/06/01 00:23:48;;;;;;;2.75;1.25;;;;;;;12.80;85.51;101067.19;7389097;19;20015;-69
2022/06/01 00:26:15;;;;;;;7.47;1.67;;;;;;;12.78;85.63;101069.19;7386944;19;20018;-67
2022/06/01 00:28:42;;;;;;;3.22;1.10;;;;;;;12.75;85.90;101066.84;7389665;19;20010;-67
2022/06/01 00:31:13;;;;;;;3.80;0.98;;;;;;;12.77;85.86;101064.03;7387118;19;20567;-66
2022/06/01 00:33:42;;;;;;;2.20;1.15;;;;;;;12.72;85.35;101067.16;7387018;19;20018;-67
2022/06/01 00:36:10;;;;;;;3.60;1.42;;;;;;;12.71;85.21;101067.31;7386554;19;20010;-70
2022/06/01 00:38:37;;;;;;;2.63;0.80;;;;;;;12.72;84.42;101063.69;7388597;19;20017;-69
2022/06/01 00:41:04;;;;;;;2.05;0.80;;;;;;;12.69;84.38;101061.41;7383986;19;20011;-67
2022/06/01 00:43:44;;;;;;;3.95;1.05;;;;;;;12.61;84.63;101054.25;7388979;19;20007;-71
2022/06/01 00:46:13;;;;;;;2.38;0.93;;;;;;;12.61;85.06;101056.06;7387863;19;20011;-68
2022/06/01 00:48:49;;;;;;;2.55;0.70;;;;;;;12.63;84.79;101052.31;7386613;19;20638;-68
2022/06/01 00:51:23;;;;;;;3.42;0.93;;;;;;;12.62;84.08;101055.09;7382751;19;20022;-66
2022/06/01 00:53:52;;;;;;;2.72;0.90;;;;;;;12.60;84.64;101046.50;7388110;19;20011;-67
2022/06/01 00:56:38;;;;;;;2.10;0.85;;;;;;;12.55;84.17;101046.97;7382755;19;20018;-67
2022/06/01 00:59:10;;;;;;;2.25;1.10;;;;;;;12.51;84.19;101045.66;7384327;19;20032;-70
2022/06/01 01:01:36;;;;;;;3.63;0.90;;;;;;;12.48;84.50;101061.00;7385043;19;20474;-69
2022/06/01 01:04:05;;;;;;;4.38;1.05;;;;;;;12.48;84.54;101063.63;7387378;19;20038;-68
2022/06/01 01:06:35;;;;;;;6.22;1.00;;;;;;;12.46;84.86;101055.84;7385617;19;20026;-70
2022/06/01 01:09:04;;;;;;;4.45;0.90;;;;;;;12.47;84.75;101057.53;7388747;19;20355;-68
2022/06/01 01:11:51;;;;;;;3.90;0.80;;;;;;;12.48;84.60;101051.25;7387835;19;20015;-68
2022/06/01 01:14:22;;;;;;;2.88;1.30;;;;;;;12.45;85.11;101056.84;7383318;19;20011;-68
2022/06/01 01:16:50;;;;;;;4.78;0.98;;;;;;;12.40;84.83;101053.84;7385143;19;20092;-70
2022/06/01 01:19:31;;;;;;;3.63;1.00;;;;;;;12.37;85.40;101049.72;7387028;19;20346;-67
2022/06/01 01:22:20;;;;;;;2.08;1.02;;;;;;;12.37;85.00;101044.44;7384869;19;20364;-67
2022/06/01 01:25:12;;;;;;;2.58;1.10;;;;;;;12.38;85.61;101055.84;7388756;19;20385;-68
2022/06/01 01:27:39;;;;;;;2.90;1.30;;;;;;;12.34;85.00;101057.16;7384955;19;20032;-67
2022/06/01 01:30:37;;;;;;;3.88;0.90;;;;;;;12.31;84.79;101057.44;7383343;19;20010;-67
2022/06/01 01:33:14;;;;;;;4.95;1.15;;;;;;;12.27;85.07;101056.13;7382981;19;20018;-67
2022/06/01 01:35:44;;;;;;;2.92;1.20;;;;;;;12.29;85.77;101062.06;7384859;19;20024;-68
2022/06/01 01:38:25;;;;;;;5.15;1.42;;;;;;;12.32;85.31;101064.38;7384609;19;20018;-67
2022/06/01 01:41:21;;;;;;;8.18;3.15;;;;;;;12.37;85.42;101054.19;7384503;19;20011;-67
2022/06/01 01:43:57;;;;;;;2.30;1.00;;;;;;;12.39;84.77;101065.41;7383293;19;20039;-68
2022/06/01 01:46:28;;;;;;;10.60;5.72;;;;;;;12.41;84.51;101069.53;7383389;19;20018;-66
2022/06/01 01:48:56;;;;;;;4.38;1.75;;;;;;;12.43;85.28;101069.38;7386151;19;20017;-69
2022/06/01 01:51:25;;;;;;;2.42;0.95;;;;;;;12.49;83.93;101076.66;7381753;19;20152;-69
2022/06/01 01:53:55;;;;;;;7.30;1.27;;;;;;;12.51;83.81;101071.22;7387089;19;20014;-68
2022/06/01 01:56:47;;;;;;;2.30;1.05;;;;;;;12.49;83.55;101060.00;7386927;19;20017;-66
2022/06/01 01:59:34;;;;;;;2.50;0.90;;;;;;;12.45;84.13;101067.41;7381076;19;20403;-66
2022/06/01 02:02:09;;;;;;;1.65;0.82;;;;;;;12.42;84.01;101070.38;7383450;19;20078;-67
2022/06/01 02:07:44;;;;;;;3.28;1.23;;;;;;;12.44;84.01;101071.84;7382652;19;20017;-68
2022/06/01 02:12:59;;;;;;;1.60;0.85;;;;;;;12.44;83.71;101068.41;7386171;19;20010;-68
2022/06/01 02:15:31;;;;;;;3.35;1.08;;;;;;;12.44;83.61;101065.78;7386012;19;20082;-68
2022/06/01 02:18:05;;;;;;;3.53;1.33;;;;;;;12.46;83.91;101065.59;7381878;19;20007;-68
2022/06/01 02:20:38;;;;;;;2.72;1.02;;;;;;;12.45;84.04;101062.13;7383685;19;20013;-67
2022/06/01 02:23:07;;;;;;;3.80;1.15;;;;;;;12.45;82.89;101056.84;7385541;19;20043;-69
2022/06/01 02:25:34;;;;;;;3.72;0.70;;;;;;;12.47;83.81;101056.69;7383816;19;20413;-69
2022/06/01 02:28:01;;;;;;;3.50;0.98;;;;;;;12.41;83.51;101063.44;7385196;19;20014;-67
2022/06/01 02:30:32;;;;;;;2.80;0.82;;;;;;;12.37;83.59;101059.47;7380307;19;20050;-66
2022/06/01 02:33:05;;;;;;;3.72;1.00;;;;;;;12.37;83.95;101057.66;7385268;19;20530;-67
2022/06/01 02:35:46;;;;;;;1.80;1.02;;;;;;;12.36;84.50;101060.44;7381463;19;20010;-68
2022/06/01 02:38:20;;;;;;;2.38;1.10;;;;;;;12.34;84.28;101057.94;7384225;19;20082;-66
2022/06/01 02:40:47;;;;;;;4.05;0.93;;;;;;;12.36;84.68;101053.34;7382424;19;20356;-67
2022/06/01 02:43:16;;;;;;;3.60;0.82;;;;;;;12.40;84.28;101056.50;7383301;19;20015;-68
2022/06/01 02:45:44;;;;;;;2.80;1.00;;;;;;;12.40;84.39;101048.56;7379817;19;20345;-67
2022/06/01 02:48:11;;;;;;;3.67;0.90;;;;;;;12.38;84.40;101053.19;7380759;19;20018;-70
2022/06/01 02:50:38;;;;;;;4.18;1.00;;;;;;;12.34;84.86;101049.22;7381521;19;21001;-68
2022/06/01 02:53:05;;;;;;;2.63;1.17;;;;;;;12.33;84.97;101056.31;7385359;19;20011;-68
2022/06/01 02:55:33;;;;;;;2.42;0.90;;;;;;;12.32;85.06;101054.66;7380857;19;20006;-67
2022/06/01 02:58:01;;;;;;;3.35;1.00;;;;;;;12.30;85.24;101055.78;7384516;19;20257;-68
2022/06/01 03:00:35;;;;;;;4.05;1.40;;;;;;;12.31;85.18;101060.91;7381082;19;20539;-67
2022/06/01 03:03:06;;;;;;;2.38;0.93;;;;;;;12.32;85.42;101067.03;7379231;19;20019;-67
2022/06/01 03:05:37;;;;;;;2.35;1.10;;;;;;;12.33;85.62;101052.84;7380494;19;20019;-68
2022/06/01 03:08:05;;;;;;;5.65;1.20;;;;;;;12.34;86.01;101049.22;7384867;19;20503;-68
2022/06/01 03:10:32;;;;;;;2.42;1.30;;;;;;;12.32;85.70;101053.84;7384644;19;20535;-68
2022/06/01 03:12:59;;;;;;;2.92;1.00;;;;;;;12.24;85.48;101057.25;7382728;19;20111;-67
2022/06/01 03:15:27;;;;;;;3.15;1.50;;;;;;;12.20;85.90;101060.34;7385036;19;20023;-68
2022/06/01 03:17:54;;;;;;;3.78;1.20;;;;;;;12.21;85.98;101059.38;7383965;19;20039;-67
2022/06/01 03:20:24;;;;;;;5.30;1.58;;;;;;;12.18;85.89;101065.81;7389612;19;20491;-68
2022/06/01 03:22:57;;;;;;;5.05;1.48;;;;;;;12.14;85.88;101064.44;7390795;19;20014;-67
2022/06/01 03:25:24;;;;;;;11.90;5.00;;;;;;;12.12;86.43;101063.78;7391276;19;20010;-69
2022/06/01 03:27:52;;;;;;;3.40;1.48;;;;;;;12.07;85.99;101065.25;7390236;19;20083;-69
2022/06/01 03:30:20;;;;;;;3.03;1.17;;;;;;;12.02;86.28;101067.53;7389940;19;20018;-68
2022/06/01 03:32:48;;;;;;;3.67;1.48;;;;;;;12.06;87.06;101066.22;7391135;19;20044;-67
2022/06/01 03:35:18;;;;;;;3.15;1.30;;;;;;;12.02;86.75;101062.25;7389489;19;20010;-66
2022/06/01 03:37:46;;;;;;;3.13;1.30;;;;;;;12.00;87.01;101063.22;7386246;19;20011;-67
2022/06/01 03:40:18;;;;;;;2.33;1.33;;;;;;;11.99;87.77;101064.19;7390677;19;20018;-68
2022/06/01 03:42:45;;;;;;;3.55;1.20;;;;;;;12.04;87.48;101060.28;7389670;19;20027;-67
2022/06/01 03:47:58;;;;;;;6.07;2.03;;;;;;;11.98;86.19;101067.84;7390284;19;20018;-68
2022/06/01 03:50:26;;;;;;;4.97;1.77;;;;;;;11.97;86.54;101063.56;7390241;19;20602;-68
2022/06/01 03:52:54;;;;;;;2.72;1.42;;;;;;;11.95;86.62;101065.50;7390804;19;20340;-69
2022/06/01 03:55:21;;;;;;;2.38;1.58;;;;;;;11.91;86.09;101063.34;7389930;19;20029;-68
2022/06/01 03:57:49;;;;;;;6.18;1.50;;;;;;;11.87;86.39;101067.28;7388054;19;20029;-68
2022/06/01 04:00:21;;;;;;;3.38;1.80;;;;;;;11.85;86.62;101062.16;7385557;19;20113;-67
2022/06/01 04:02:48;;;;;;;4.15;1.38;;;;;;;11.83;85.90;101061.50;7386082;19;20017;-68
2022/06/01 04:05:19;;;;;;;4.80;1.38;;;;;;;11.84;86.14;101059.66;7387776;19;20025;-68
2022/06/01 04:07:47;;;;;;;3.42;1.23;;;;;;;11.81;85.98;101068.72;7387197;19;20794;-68
2022/06/01 04:10:14;;;;;;;7.70;1.40;;;;;;;11.79;86.24;101065.41;7387496;19;20017;-69
2022/06/01 04:12:41;;;;;;;3.20;1.10;;;;;;;11.80;85.82;101068.88;7388063;19;20194;-67
2022/06/01 04:15:08;;;;;;;2.95;1.48;;;;;;;11.80;86.53;101072.34;7387366;19;20010;-67
2022/06/01 04:17:37;;;;;;;2.95;1.33;;;;;;;11.81;86.12;101063.44;7387085;19;20476;-65
2022/06/01 04:20:06;;;;;;;3.67;1.40;;;;;;;11.83;85.91;101084.38;7387314;19;20025;-69
2022/06/01 04:22:35;;;;;;;17.27;6.47;;;;;;;11.88;87.50;101082.94;7385722;19;20011;-67
2022/06/01 04:25:04;;;;;;;3.65;1.60;;;;;;;11.91;86.34;101085.25;7387764;19;20015;-68
2022/06/01 04:27:34;;;;;;;5.07;1.63;;;;;;;11.91;85.46;101082.63;7389067;19;20103;-66
2022/06/01 04:30:02;;;;;;;3.58;1.20;;;;;;;11.92;84.65;101092.19;7385458;19;20021;-67
2022/06/01 04:32:33;;;;;;;2.80;0.90;;;;;;;11.92;85.16;101083.47;7388593;19;20009;-69
2022/06/01 04:35:08;;;;;;;2.92;1.38;;;;;;;11.90;85.01;101080.13;7384902;19;20015;-66
2022/06/01 04:37:38;;;;;;;3.60;1.15;;;;;;;11.87;85.32;101083.94;7387274;19;20019;-69
2022/06/01 04:40:09;;;;;;;4.50;1.50;;;;;;;11.86;85.78;101079.63;7389117;19;20011;-70
2022/06/01 04:42:36;;;;;;;2.88;1.30;;;;;;;11.84;85.33;101086.84;7384717;19;20007;-68
2022/06/01 04:45:04;;;;;;;2.45;0.95;;;;;;;11.81;84.93;101081.06;7388460;19;20062;-67
2022/06/01 04:47:31;;;;;;;5.00;1.20;;;;;;;11.82;85.08;101086.19;7386996;19;20018;-68
2022/06/01 04:49:58;;;;;;;3.58;1.10;;;;;;;11.81;85.18;101088.97;7384468;19;20021;-67
2022/06/01 04:52:25;;;;;;;8.82;5.45;;;;;;;11.83;85.96;101085.22;7388280;19;20010;-68
2022/06/01 04:54:51;;;;;;;5.88;1.60;;;;;;;11.89;86.14;101084.56;7388227;19;20033;-69
2022/06/01 04:57:18;;;;;;;4.57;1.20;;;;;;;11.92;85.33;101089.56;7386904;19;20015;-67
2022/06/01 04:59:45;;;;;;;3.58;1.48;;;;;;;11.95;85.12;101081.31;7387556;19;20486;-66
2022/06/01 05:02:12;;;;;;;2.50;1.10;;;;;;;11.94;85.11;101086.75;7382184;19;20007;-66
2022/06/01 05:04:40;;;;;;;3.95;1.20;;;;;;;11.94;85.11;101086.75;7388080;19;20325;-69
2022/06/01 05:07:07;;;;;;;4.25;1.27;;;;;;;11.93;84.89;101080.66;7387300;19;20015;-66
2022/06/01 05:09:34;;;;;;;2.90;1.25;;;;;;;11.97;85.06;101083.81;7385766;19;20710;-68
2022/06/01 05:12:02;;;;;;;5.05;1.10;;;;;;;11.97;84.96;101075.91;7388231;19;20010;-68
2022/06/01 05:14:29;;;;;;;2.15;1.02;;;;;;;12.03;85.34;101083.19;7387377;19;20020;-68
2022/06/01 05:16:58;;;;;;;4.47;1.30;;;;;;;12.08;84.53;101093.28;7384967;19;20010;-69
2022/06/01 05:19:25;;;;;;;3.13;1.25;;;;;;;12.08;84.15;101088.84;7387092;19;20112;-67
2022/06/01 05:21:53;;;;;;;4.07;1.92;;;;;;;12.11;83.80;101093.78;7385115;19;20711;-66
2022/06/01 05:24:22;;;;;;;3.90;1.35;;;;;;;12.14;83.81;101092.66;7387573;19;20032;-67
2022/06/01 05:26:51;;;;;;;8.68;1.52;;;;;;;12.18;83.95;101097.47;7386328;19;20031;-69
2022/06/01 05:29:18;;;;;;;7.78;3.95;;;;;;;12.22;84.04;101097.97;7385491;19;20017;-67
2022/06/01 05:31:45;;;;;;;4.72;1.60;;;;;;;12.25;84.19;101098.47;7388146;19;20011;-67
2022/06/01 05:34:18;;;;;;;3.70;1.25;;;;;;;12.27;83.38;101112.34;7385783;19;20031;-69
2022/06/01 05:36:45;;;;;;;4.13;1.38;;;;;;;12.33;83.51;101110.91;7384109;19;20014;-69
2022/06/01 05:39:12;;;;;;;5.18;1.48;;;;;;;12.40;83.54;101118.00;7386432;19;20614;-66
2022/06/01 05:41:40;;;;;;;5.50;2.22;;;;;;;12.44;82.78;101115.91;7386399;19;20014;-69
2022/06/01 05:44:11;;;;;;;3.58;1.70;;;;;;;12.48;83.01;101113.78;7386032;19;20687;-67
2022/06/01 05:46:40;;;;;;;3.38;1.20;;;;;;;12.50;82.26;101112.63;7384362;19;20456;-68
2022/06/01 05:49:13;;;;;;;5.85;1.60;;;;;;;12.50;82.48;101119.69;7386217;19;20758;-68
2022/06/01 05:51:48;;;;;;;3.75;1.48;;;;;;;12.55;82.45;101110.31;7385708;19;20029;-66
2022/06/01 05:54:19;;;;;;;19.92;10.55;;;;;;;12.59;82.78;101114.31;7386098;19;20036;-69
2022/06/01 05:56:51;;;;;;;5.20;2.45;;;;;;;12.65;84.37;101121.59;7384905;19;20387;-68
2022/06/01 05:59:18;;;;;;;4.05;1.50;;;;;;;12.71;82.60;101112.22;7383657;19;20019;-68
2022/06/01 06:01:45;;;;;;;3.05;1.30;;;;;;;12.78;82.50;101121.16;7382482;19;20019;-68
2022/06/01 06:04:12;;;;;;;3.10;1.30;;;;;;;12.82;81.36;101120.66;7382611;19;20021;-69
2022/06/01 06:06:39;;;;;;;3.95;1.60;;;;;;;12.85;81.03;101125.63;7384915;19;20006;-66
2022/06/01 06:09:08;;;;;;;2.38;1.10;;;;;;;12.86;81.50;101119.34;7384108;19;20019;-68
2022/06/01 06:11:37;;;;;;;4.72;1.40;;;;;;;12.92;81.28;101123.19;7385692;19;20030;-68
2022/06/01 06:14:08;;;;;;;16.63;10.13;;;;;;;12.95;81.29;101127.31;7385702;19;20006;-67
2022/06/01 06:16:45;;;;;;;4.38;1.75;;;;;;;12.96;81.28;101128.94;7380838;19;20044;-66
2022/06/01 06:19:14;;;;;;;4.70;1.50;;;;;;;12.95;80.81;101124.69;7383455;19;20097;-67
2022/06/01 06:21:41;;;;;;;3.13;1.30;;;;;;;12.92;80.14;101131.09;7382349;19;20468;-68
2022/06/01 06:24:15;;;;;;;3.92;1.85;;;;;;;12.97;79.96;101134.09;7382384;19;20010;-69
2022/06/01 06:26:45;;;;;;;2.95;1.40;;;;;;;12.97;79.55;101131.44;7384260;19;20130;-69
2022/06/01 06:29:15;;;;;;;3.88;2.00;;;;;;;12.99;81.07;101132.13;7384388;19;20339;-69
2022/06/01 06:31:43;;;;;;;3.08;1.58;;;;;;;13.02;80.73;101129.16;7383083;19;20476;-68
2022/06/01 06:34:17;;;;;;;4.05;1.60;;;;;;;13.07;80.53;101137.41;7384814;19;20015;-69
2022/06/01 06:36:44;;;;;;;2.95;1.73;;;;;;;13.07;79.78;101136.59;7383097;19;20383;-68
2022/06/01 06:39:12;;;;;;;3.65;1.25;;;;;;;13.09;79.66;101140.75;7383184;19;20010;-66
2022/06/01 06:41:40;;;;;;;4.18;1.35;;;;;;;13.13;79.59;101151.84;7383148;19;20003;-68
2022/06/01 06:44:18;;;;;;;4.15;1.63;;;;;;;13.13;79.73;101155.31;7384030;19;20015;-69
2022/06/01 06:46:50;;;;;;;;;;;;;;;13.19;80.27;101146.75;7383571;19;20011;-68
2022/06/01 06:49:17;;;;;;;3.95;1.33;;;;;;;13.19;79.48;101149.38;7384508;19;19922;-67
2022/06/01 06:51:44;;;;;;;2.65;1.52;;;;;;;13.22;79.50;101154.31;7383770;19;20014;-68
2022/06/01 06:54:18;;;;;;;3.55;1.38;;;;;;;13.21;79.70;101165.88;7380164;19;20023;-69
2022/06/01 06:56:53;;;;;;;4.17;1.67;;;;;;;13.21;78.90;101160.59;7381120;19;20010;-68
2022/06/01 06:59:20;;;;;;;5.10;1.77;;;;;;;13.23;78.86;101163.09;7383077;19;20021;-68
2022/06/01 07:01:49;;;;;;;4.45;1.85;;;;;;;13.30;80.59;101172.03;7381486;19;20017;-69
2022/06/01 07:04:16;;;;;;;3.30;1.40;;;;;;;13.33;79.04;101166.41;7378161;19;20021;-68
2022/06/01 07:06:43;;;;;;;4.80;2.97;;;;;;;13.42;80.03;101173.38;7383286;19;20011;-67
2022/06/01 07:09:10;;;;;;;2.88;1.63;;;;;;;13.47;79.48;101178.97;7383428;19;20135;-70
2022/06/01 07:11:38;;;;;;;5.80;2.92;;;;;;;13.53;79.67;101177.50;7380915;19;20011;-69
2022/06/01 07:14:15;;;;;;;5.90;2.20;;;;;;;13.58;78.82;101173.38;7383408;19;20010;-67
2022/06/01 07:16:44;;;;;;;3.45;1.60;;;;;;;13.60;77.71;101179.34;7382488;19;20471;-68
2022/06/01 07:19:11;;;;;;;5.70;3.00;;;;;;;13.61;78.43;101183.63;7381969;19;20011;-67
2022/06/01 07:21:39;;;;;;;7.55;3.95;;;;;;;13.64;79.24;101187.78;7379744;19;20015;-69
2022/06/01 07:24:09;;;;;;;5.65;2.05;;;;;;;13.66;78.99;101189.25;7383240;19;20027;-71
2022/06/01 07:26:41;;;;;;;6.15;1.58;;;;;;;13.76;81.58;101190.94;7381510;19;20447;-70
2022/06/01 07:29:13;;;;;;;5.45;1.80;;;;;;;13.89;82.28;101196.56;7380259;19;20031;-67
2022/06/01 07:31:41;;;;;;;3.03;1.35;;;;;;;13.92;80.43;101194.38;7382440;19;20015;-68
2022/06/01 07:34:16;;;;;;;4.35;1.20;;;;;;;13.90;77.11;101201.69;7383737;19;20017;-69
2022/06/01 07:36:45;;;;;;;3.33;1.30;;;;;;;13.87;75.65;101198.53;7380854;19;20010;-69
2022/06/01 07:44:53;;;;;;;3.33;2.00;;;;;;;13.92;78.47;101202.31;7379515;19;20009;-69
2022/06/01 07:47:21;;;;;;;7.10;1.65;;;;;;;13.93;77.07;101208.44;7379707;19;20030;-67
2022/06/01 07:50:08;;;;;;;5.78;1.42;;;;;;;13.93;74.93;101205.81;7380729;19;20644;-67
2022/06/01 07:52:59;;;;;;;6.10;2.20;;;;;;;13.95;76.16;101199.38;7383192;19;20011;-68
2022/06/01 07:55:29;;;;;;;4.70;1.40;;;;;;;14.02;76.14;101200.34;7377933;19;20014;-67
2022/06/01 07:57:57;;;;;;;2.22;1.00;;;;;;;14.01;75.16;101201.34;7382530;19;20518;-68
2022/06/01 08:00:24;;;;;;;4.13;1.10;;;;;;;14.04;74.76;101206.31;7380523;19;20020;-68
2022/06/01 08:02:51;;;;;;;3.90;1.13;;;;;;;14.01;73.95;101201.34;7379779;19;20554;-67
2022/06/01 08:05:20;;;;;;;3.50;1.05;;;;;;;14.03;74.36;101201.16;7379564;19;20031;-68
2022/06/01 08:07:47;;;;;;;3.50;0.85;;;;;;;14.07;74.69;101208.59;7388821;19;20014;-66
2022/06/01 08:10:19;;;;;;;4.28;1.15;;;;;;;14.10;74.44;101207.47;7388016;19;20568;-68
2022/06/01 08:15:39;;;;;;;2.30;0.85;;;;;;;14.11;74.95;101212.59;7387710;19;20021;-69
2022/06/01 08:18:09;;;;;;;3.25;1.42;;;;;;;14.21;76.36;101212.44;7388015;19;20678;-68
2022/06/01 08:20:37;;;;;;;2.10;0.88;;;;;;;14.23;74.25;101204.31;7384586;19;20014;-68
2022/06/01 08:23:05;;;;;;;8.63;3.10;;;;;;;14.23;75.26;101205.13;7386796;19;20011;-69
2022/06/01 08:25:33;;;;;;;4.72;1.70;;;;;;;14.25;75.13;101212.91;7387980;19;20420;-66
2022/06/01 08:28:00;;;;;;;3.85;1.00;;;;;;;14.27;74.44;101205.63;7387301;19;20010;-68
2022/06/01 08:30:28;;;;;;;3.20;1.15;;;;;;;14.32;74.36;101205.97;7385209;19;20484;-67
2022/06/01 08:32:56;;;;;;;4.88;0.75;;;;;;;14.38;73.61;101207.94;7388654;19;20643;-68
2022/06/01 08:35:27;;;;;;;3.60;0.60;;;;;;;14.41;72.76;101213.75;7387955;19;20074;-66
2022/06/01 08:37:56;;;;;;;3.72;0.60;;;;;;;14.47;72.65;101223.69;7386301;19;20103;-70
2022/06/01 08:40:27;;;;;;;2.08;0.70;;;;;;;14.50;72.64;101222.50;7387424;19;20384;-67
2022/06/01 08:43:07;;;;;;;3.38;0.60;;;;;;;14.49;71.46;101224.31;7385750;19;20007;-66
2022/06/01 08:45:38;;;;;;;3.08;0.93;;;;;;;14.49;71.12;101224.31;7383147;19;20007;-69
2022/06/01 08:48:06;;;;;;;3.08;1.00;;;;;;;14.53;70.82;101225.63;7387007;19;20074;-68
2022/06/01 08:50:41;;;;;;;5.38;0.60;;;;;;;14.58;71.02;101232.28;7386665;19;20040;-69
2022/06/01 08:53:09;;;;;;;4.10;0.80;;;;;;;14.59;70.99;101225.94;7387901;19;20026;-69
2022/06/01 08:55:47;;;;;;;3.92;1.27;;;;;;;14.63;71.06;101227.28;7388421;19;20078;-67
2022/06/01 08:58:23;;;;;;;3.47;0.80;;;;;;;14.70;71.35;101226.44;7386787;19;20464;-68
2022/06/01 09:00:58;;;;;;;2.13;1.20;;;;;;;14.78;72.50;101228.25;7386547;19;20562;-68
2022/06/01 09:03:46;;;;;;;2.88;0.80;;;;;;;14.86;71.30;101229.03;7384760;19;20007;-69
2022/06/01 09:06:43;;;;;;;2.10;0.77;;;;;;;14.92;69.55;101219.59;7382607;19;20015;-68
2022/06/01 09:09:26;;;;;;;3.25;1.13;;;;;;;14.97;71.52;101226.03;7387280;19;20031;-71
2022/06/01 09:11:53;;;;;;;3.67;1.00;;;;;;;15.02;70.46;101228.16;7387013;19;20070;-69
2022/06/01 09:14:33;;;;;;;5.28;1.63;;;;;;;15.05;70.53;101230.44;7388164;19;20006;-68
2022/06/01 09:17:02;;;;;;;3.40;1.02;;;;;;;15.05;70.85;101232.28;7385266;19;20091;-69
2022/06/01 09:22:37;;;;;;;2.92;1.10;;;;;;;15.04;71.38;101235.91;7386245;19;20019;-68
2022/06/01 09:22:38;;;;;;;2.10;1.17;;;;;;;15.09;70.43;101241.53;7384977;19;20015;-69
2022/06/01 09:25:08;;;;;;;1.80;0.95;;;;;;;15.04;70.55;101242.03;7384901;19;20011;-70
2022/06/01 09:27:47;;;;;;;6.53;1.30;;;;;;;15.01;71.18;101237.09;7384373;19;20484;-68
2022/06/01 09:30:36;;;;;;;6.13;1.30;;;;;;;15.01;71.28;101233.63;7386106;19;20138;-67
2022/06/01 09:33:21;;;;;;;6.85;1.17;;;;;;;15.04;72.13;101238.56;7383673;19;20011;-69
2022/06/01 09:36:04;;;;;;;1.85;0.65;;;;;;;15.09;70.64;101244.19;7382030;19;20039;-69
2022/06/01 09:38:49;;;;;;;1.92;0.77;;;;;;;15.11;69.93;101248.31;7384933;19;20003;-69
2022/06/01 09:41:19;;;;;;;4.50;1.15;;;;;;;15.23;68.72;101246.97;7384337;19;20712;-68
2022/06/01 09:44:00;;;;;;;3.50;0.70;;;;;;;15.33;67.96;101241.44;7379954;19;20011;-69
2022/06/01 09:46:36;;;;;;;2.88;0.80;;;;;;;15.45;67.48;101242.69;7382273;19;20032;-66
2022/06/01 09:49:24;;;;;;;2.80;0.90;;;;;;;15.43;68.13;101249.19;7383485;19;20221;-66
2022/06/01 09:52:02;;;;;;;2.38;0.70;;;;;;;15.40;67.48;101253.81;7385636;19;20039;-69
2022/06/01 09:54:32;;;;;;;2.47;0.80;;;;;;;15.35;68.55;101248.22;7376646;19;20119;-68
2022/06/01 09:57:38;;;;;;;3.45;0.65;;;;;;;15.31;68.19;101256.69;7383314;19;20011;-68
2022/06/01 10:06:09;;;;;;;4.85;1.75;;;;;;;15.20;69.92;101255.25;7380676;19;20102;-68
2022/06/01 10:08:42;;;;;;;5.00;0.80;;;;;;;15.18;70.52;101262.56;7380192;19;20022;-69
2022/06/01 10:11:32;;;;;;;2.97;0.80;;;;;;;15.15;68.79;101262.06;7383240;19;20011;-68
2022/06/01 10:14:27;;;;;;;1.27;0.70;;;;;;;15.11;69.13;101268.69;7383786;19;20437;-67
2022/06/01 10:16:56;;;;;;;3.80;1.00;;;;;;;15.07;69.75;101272.69;7381160;19;20038;-68
2022/06/01 10:19:45;;;;;;;2.15;0.75;;;;;;;15.08;69.71;101269.06;7382492;19;20102;-69
2022/06/01 10:22:43;;;;;;;4.68;0.80;;;;;;;15.08;70.18;101274.34;7382182;19;20073;-68
2022/06/01 10:25:22;;;;;;;2.33;0.98;;;;;;;15.08;70.51;101269.06;7378896;19;20011;-68
2022/06/01 10:27:57;;;;;;;4.57;0.65;;;;;;;15.09;71.08;101275.97;7378090;19;20042;-68
2022/06/01 10:30:28;;;;;;;;;;;;;;;15.12;70.61;101281.78;7381038;19;20025;-69
2022/06/01 10:33:03;;;;;;;1.65;0.70;;;;;;;15.11;71.39;101269.53;7382229;19;19922;-65
2022/06/01 10:35:43;;;;;;;2.65;0.93;;;;;;;15.14;71.42;101284.25;7380287;19;20021;-68
2022/06/01 10:38:19;;;;;;;8.25;3.15;;;;;;;15.15;69.97;101284.09;7382671;19;20011;-68
2022/06/01 10:41:05;;;;;;;6.72;1.27;;;;;;;15.16;70.63;101285.75;7380974;19;20551;-68
2022/06/01 10:43:42;;;;;;;3.00;0.50;;;;;;;15.21;70.86;101285.22;7380084;19;20011;-68
2022/06/01 10:46:26;;;;;;;1.25;0.50;;;;;;;15.23;71.09;101283.25;7381190;19;20022;-69
2022/06/01 10:49:15;;;;;;;3.55;0.57;;;;;;;15.24;70.56;101280.41;7378552;19;20018;-66
2022/06/01 10:51:45;;;;;;;3.05;0.80;;;;;;;15.25;71.59;101287.34;7378913;19;20018;-68
2022/06/01 10:54:36;;;;;;;3.08;1.00;;;;;;;15.27;72.36;101287.19;7381975;19;20542;-68
2022/06/01 10:57:08;;;;;;;2.13;0.70;;;;;;;15.27;72.26;101295.16;7381615;19;20010;-68
2022/06/01 10:59:35;;;;;;;2.67;0.73;;;;;;;15.30;72.53;101278.88;7380072;19;20010;-68
2022/06/01 11:02:16;;;;;;;3.22;1.70;;;;;;;15.35;73.57;101285.34;7381967;19;20010;-67
2022/06/01 11:05:01;;;;;;;2.75;0.70;;;;;;;15.38;72.19;101282.34;7379419;19;20036;-68
2022/06/01 11:07:58;;;;;;;2.42;0.93;;;;;;;15.41;71.13;101286.47;7379240;19;20036;-69
2022/06/01 11:10:48;;;;;;;3.42;1.30;;;;;;;15.42;72.39;101293.44;7380415;19;20091;-68
2022/06/01 11:13:54;;;;;;;3.47;1.00;;;;;;;15.43;72.99;101286.31;7378417;19;20565;-68
2022/06/01 11:16:53;;;;;;;3.65;1.73;;;;;;;15.44;72.19;101285.31;7379114;19;20508;-70
2022/06/01 11:19:25;;;;;;;4.15;1.13;;;;;;;15.50;73.52;101287.25;7380657;19;20496;-66
2022/06/01 11:21:55;;;;;;;;;;;;;;;15.57;71.44;101281.13;7382164;19;20015;-68
2022/06/01 11:25:04;;;;;;;1.95;0.77;;;;;;;15.68;71.27;101286.03;7379652;19;20038;-68
2022/06/01 11:28:22;;;;;;;1.80;0.60;;;;;;;15.82;70.82;101285.28;7378797;19;20011;-69
2022/06/01 11:30:58;;;;;;;4.50;0.77;;;;;;;15.98;71.14;101286.19;7378156;19;20049;-68
2022/06/01 11:33:33;;;;;;;2.60;0.70;;;;;;;16.12;70.49;101288.06;7366958;19;20027;-67
2022/06/01 11:36:27;;;;;;;1.98;0.60;;;;;;;16.20;68.78;101290.66;7377222;19;20010;-68
2022/06/01 11:39:14;;;;;;;4.75;0.73;;;;;;;16.31;69.21;101294.72;7379181;19;20026;-67
2022/06/01 11:41:54;;;;;;;3.70;0.77;;;;;;;16.40;69.36;101294.50;7386825;19;20074;-67
2022/06/01 11:44:36;;;;;;;1.13;0.50;;;;;;;16.49;70.02;101295.22;7375953;19;20337;-69
2022/06/01 11:47:16;;;;;;;1.08;0.50;;;;;;;16.56;68.42;101294.31;7384392;19;20517;-69
2022/06/01 11:50:20;;;;;;;1.33;0.40;;;;;;;16.64;67.77;101296.94;7389633;19;20121;-67
2022/06/01 11:52:56;;;;;;;1.23;0.50;;;;;;;16.77;66.87;101301.63;7385263;19;20550;-69
2022/06/01 11:56:05;;;;;;;2.20;0.30;;;;;;;16.79;64.51;101296.13;7389026;19;20045;-66
2022/06/01 11:58:34;;;;;;;2.80;0.50;;;;;;;16.73;63.55;101294.19;7386773;19;20011;-68
2022/06/01 12:01:14;;;;;;;2.17;0.30;;;;;;;16.71;63.12;101291.72;7388079;19;20011;-69
2022/06/01 12:04:16;;;;;;;0.82;0.30;;;;;;;16.78;62.49;101297.97;7386141;19;20006;-67
2022/06/01 12:06:50;;;;;;;3.95;0.40;;;;;;;16.86;61.66;101294.41;7387367;19;20118;-67
2022/06/01 12:09:41;;;;;;;1.65;0.40;;;;;;;16.94;61.44;101296.97;7387735;19;20021;-69
2022/06/01 12:12:26;;;;;;;10.98;4.45;;;;;;;16.94;61.18;101296.97;7388072;19;20017;-67
2022/06/01 12:15:35;;;;;;;9.80;2.53;;;;;;;16.95;59.67;101299.47;7387792;19;20027;-68
2022/06/01 12:18:14;;;;;;;2.53;0.80;;;;;;;16.93;59.37;101298.81;7389407;19;20017;-69
2022/06/01 12:20:47;;;;;;;2.80;0.50;;;;;;;16.85;59.41;101288.28;7386927;19;20019;-67